Roswell International Air Center Airport
KROW : rendu visible

Aérodrome :











RETROUVEZ-NOUS SUR...

 
LOGIN :

S'inscrire | Disclaimer

   EN    FR    IT 

 









Légende :    VFR   VFR Marginal   IFR   IFR Intensif   IFR Très Intensif
Visi : 
Plafond : 
>= 8 km
>= 3000ft
5 à 8 km
1000 à 3000 ft
1500m à 5 km
500 à 1000 ft
800 à 1500m
200 à 500 ft
< 800m
< 200 ft
Symboles :   Orages  Brouillard  Fortes neiges  Fortes précipitations  Vent > 20 kt






- Altitude de l'aérodrome : 3671 ft
- Code IATA : ROW


KROW - Roswell International Air Center

DERNIER METAR :
  • 241451Z 15005KT 10SM CLR 08/M01 A2995 RMK AO2 SLP115 T00831006 53004

METARs EXPIRÉS :
  • 241351Z AUTO 15004KT 10SM CLR 02/M02 A2994 RMK AO2 SLP119 T00221022
  • 241251Z AUTO 16005KT 10SM CLR 02/M02 A2994 RMK AO2 SLP115 T00221022

TAF KROW
Valide du 24 à 12h jusqu'au 25 à 12h UTC


241120Z 2412/2512 26006KT P6SM SKC
FM241700 29012G20KT P6SM SKC
FM242000 30018G26KT P6SM SKC
FM250200 33014G24KT P6SM SKC
FM250700 35009KT P6SM SKC



MET'MAP, la Météo Aéronautique d'un coup d'oeil ! - Copyright ORBIFLY Décembre 2007 - Disclaimer

ORBIFLY MET'MAP TEAM :

Programmation & Développement : Alexandra Zaïnal
Sur une idée originale de : Baudouin d'Aumeries
Assistance à la programmation : Marc-Olivier Méhu
Soutien technique & logistique : Manuel Goepfert

Contact : metmap@orbifly.com




SOURCES & CREDITS :

   NOAA       Earth
Advisory